sensor_id;sensor_type;location;lat;lon;timestamp;P1;durP1;ratioP1;P2;durP2;ratioP2
16543;SDS011;8384;47.996;7.786;2022-08-21T00:01:22;2.13;;;1.60;;
16543;SDS011;8384;47.996;7.786;2022-08-21T00:03:50;2.63;;;1.60;;
16543;SDS011;8384;47.996;7.786;2022-08-21T00:06:15;2.60;;;1.70;;
16543;SDS011;8384;47.996;7.786;2022-08-21T00:08:40;2.15;;;1.45;;
16543;SDS011;8384;47.996;7.786;2022-08-21T00:11:06;2.25;;;1.40;;
16543;SDS011;8384;47.996;7.786;2022-08-21T00:13:32;1.75;;;1.40;;
16543;SDS011;8384;47.996;7.786;2022-08-21T00:15:58;1.85;;;1.48;;
16543;SDS011;8384;47.996;7.786;2022-08-21T00:18:24;2.93;;;1.60;;
16543;SDS011;8384;47.996;7.786;2022-08-21T00:20:49;1.80;;;1.40;;
16543;SDS011;8384;47.996;7.786;2022-08-21T00:23:15;2.63;;;1.45;;
16543;SDS011;8384;47.996;7.786;2022-08-21T00:25:41;3.07;;;1.70;;
16543;SDS011;8384;47.996;7.786;2022-08-21T00:28:08;2.53;;;1.40;;
16543;SDS011;8384;47.996;7.786;2022-08-21T00:30:34;1.50;;;1.40;;
16543;SDS011;8384;47.996;7.786;2022-08-21T00:32:59;2.13;;;1.45;;
16543;SDS011;8384;47.996;7.786;2022-08-21T00:35:28;3.30;;;1.73;;
16543;SDS011;8384;47.996;7.786;2022-08-21T00:37:59;2.70;;;1.50;;
16543;SDS011;8384;47.996;7.786;2022-08-21T00:40:27;1.85;;;1.65;;
16543;SDS011;8384;47.996;7.786;2022-08-21T00:43:15;1.92;;;1.70;;
16543;SDS011;8384;47.996;7.786;2022-08-21T00:45:42;4.03;;;1.60;;
16543;SDS011;8384;47.996;7.786;2022-08-21T00:48:08;1.77;;;1.50;;
16543;SDS011;8384;47.996;7.786;2022-08-21T00:50:35;2.28;;;1.50;;
16543;SDS011;8384;47.996;7.786;2022-08-21T00:53:07;1.63;;;1.50;;
16543;SDS011;8384;47.996;7.786;2022-08-21T00:55:33;2.13;;;1.70;;
16543;SDS011;8384;47.996;7.786;2022-08-21T00:58:00;1.52;;;1.42;;
16543;SDS011;8384;47.996;7.786;2022-08-21T01:00:31;2.83;;;1.70;;
16543;SDS011;8384;47.996;7.786;2022-08-21T01:02:59;2.50;;;1.55;;
16543;SDS011;8384;47.996;7.786;2022-08-21T01:05:25;2.25;;;1.52;;
16543;SDS011;8384;47.996;7.786;2022-08-21T01:07:51;2.80;;;1.50;;
16543;SDS011;8384;47.996;7.786;2022-08-21T01:10:18;1.80;;;1.30;;
16543;SDS011;8384;47.996;7.786;2022-08-21T01:12:43;1.80;;;1.63;;
16543;SDS011;8384;47.996;7.786;2022-08-21T01:15:09;2.63;;;1.60;;
16543;SDS011;8384;47.996;7.786;2022-08-21T01:17:36;2.10;;;1.60;;
16543;SDS011;8384;47.996;7.786;2022-08-21T01:20:03;2.50;;;1.60;;
16543;SDS011;8384;47.996;7.786;2022-08-21T01:22:31;1.88;;;1.70;;
16543;SDS011;8384;47.996;7.786;2022-08-21T01:24:56;1.63;;;1.50;;
16543;SDS011;8384;47.996;7.786;2022-08-21T01:27:22;1.70;;;1.60;;
16543;SDS011;8384;47.996;7.786;2022-08-21T01:29:56;3.77;;;1.57;;
16543;SDS011;8384;47.996;7.786;2022-08-21T01:32:26;2.47;;;1.60;;
16543;SDS011;8384;47.996;7.786;2022-08-21T01:34:52;2.33;;;1.57;;
16543;SDS011;8384;47.996;7.786;2022-08-21T01:37:19;1.58;;;1.42;;
16543;SDS011;8384;47.996;7.786;2022-08-21T01:39:46;1.90;;;1.50;;
16543;SDS011;8384;47.996;7.786;2022-08-21T01:42:13;2.23;;;1.60;;
16543;SDS011;8384;47.996;7.786;2022-08-21T01:44:38;1.65;;;1.50;;
16543;SDS011;8384;47.996;7.786;2022-08-21T01:47:04;1.90;;;1.70;;
16543;SDS011;8384;47.996;7.786;2022-08-21T01:49:32;2.72;;;1.73;;
16543;SDS011;8384;47.996;7.786;2022-08-21T01:51:58;1.67;;;1.50;;
16543;SDS011;8384;47.996;7.786;2022-08-21T01:54:23;2.50;;;1.60;;
16543;SDS011;8384;47.996;7.786;2022-08-21T01:56:49;2.23;;;1.60;;
16543;SDS011;8384;47.996;7.786;2022-08-21T01:59:17;2.40;;;1.70;;
16543;SDS011;8384;47.996;7.786;2022-08-21T02:01:43;1.60;;;1.50;;
16543;SDS011;8384;47.996;7.786;2022-08-21T02:04:09;1.90;;;1.50;;
16543;SDS011;8384;47.996;7.786;2022-08-21T02:06:35;1.80;;;1.70;;
16543;SDS011;8384;47.996;7.786;2022-08-21T02:09:02;2.88;;;1.70;;
16543;SDS011;8384;47.996;7.786;2022-08-21T02:11:29;2.47;;;1.60;;
16543;SDS011;8384;47.996;7.786;2022-08-21T02:13:54;2.60;;;1.80;;
16543;SDS011;8384;47.996;7.786;2022-08-21T02:16:19;3.57;;;1.80;;
16543;SDS011;8384;47.996;7.786;2022-08-21T02:18:45;2.57;;;1.90;;
16543;SDS011;8384;47.996;7.786;2022-08-21T02:21:10;1.98;;;1.73;;
16543;SDS011;8384;47.996;7.786;2022-08-21T02:23:36;2.57;;;1.60;;
16543;SDS011;8384;47.996;7.786;2022-08-21T02:26:02;1.83;;;1.73;;
16543;SDS011;8384;47.996;7.786;2022-08-21T02:28:31;1.90;;;1.60;;
16543;SDS011;8384;47.996;7.786;2022-08-21T02:30:57;2.28;;;1.65;;
16543;SDS011;8384;47.996;7.786;2022-08-21T02:33:23;2.90;;;1.75;;
16543;SDS011;8384;47.996;7.786;2022-08-21T02:35:49;2.20;;;1.70;;
16543;SDS011;8384;47.996;7.786;2022-08-21T02:38:16;2.63;;;1.63;;
16543;SDS011;8384;47.996;7.786;2022-08-21T02:40:45;1.80;;;1.60;;
16543;SDS011;8384;47.996;7.786;2022-08-21T02:43:12;2.00;;;1.63;;
16543;SDS011;8384;47.996;7.786;2022-08-21T02:45:38;1.77;;;1.67;;
16543;SDS011;8384;47.996;7.786;2022-08-21T02:48:05;2.30;;;1.57;;
16543;SDS011;8384;47.996;7.786;2022-08-21T02:50:35;2.47;;;1.80;;
16543;SDS011;8384;47.996;7.786;2022-08-21T02:53:06;2.53;;;1.77;;
16543;SDS011;8384;47.996;7.786;2022-08-21T02:55:34;2.80;;;1.60;;
16543;SDS011;8384;47.996;7.786;2022-08-21T02:58:02;3.00;;;1.80;;
16543;SDS011;8384;47.996;7.786;2022-08-21T03:00:29;2.47;;;1.70;;
16543;SDS011;8384;47.996;7.786;2022-08-21T03:02:56;2.73;;;1.90;;
16543;SDS011;8384;47.996;7.786;2022-08-21T03:05:23;2.93;;;1.87;;
16543;SDS011;8384;47.996;7.786;2022-08-21T03:07:50;2.97;;;1.80;;
16543;SDS011;8384;47.996;7.786;2022-08-21T03:10:17;2.10;;;1.80;;
16543;SDS011;8384;47.996;7.786;2022-08-21T03:12:44;4.70;;;1.90;;
16543;SDS011;8384;47.996;7.786;2022-08-21T03:15:10;2.20;;;1.67;;
16543;SDS011;8384;47.996;7.786;2022-08-21T03:17:37;2.38;;;1.80;;
16543;SDS011;8384;47.996;7.786;2022-08-21T03:20:06;3.03;;;1.90;;
16543;SDS011;8384;47.996;7.786;2022-08-21T03:22:32;2.83;;;1.90;;
16543;SDS011;8384;47.996;7.786;2022-08-21T03:24:58;1.93;;;1.67;;
16543;SDS011;8384;47.996;7.786;2022-08-21T03:27:24;3.50;;;1.77;;
16543;SDS011;8384;47.996;7.786;2022-08-21T03:29:52;3.00;;;1.70;;
16543;SDS011;8384;47.996;7.786;2022-08-21T03:32:18;2.35;;;1.73;;
16543;SDS011;8384;47.996;7.786;2022-08-21T03:34:44;2.10;;;1.80;;
16543;SDS011;8384;47.996;7.786;2022-08-21T03:37:11;2.10;;;1.90;;
16543;SDS011;8384;47.996;7.786;2022-08-21T03:39:37;4.65;;;1.98;;
16543;SDS011;8384;47.996;7.786;2022-08-21T03:42:02;3.83;;;2.15;;
16543;SDS011;8384;47.996;7.786;2022-08-21T03:44:29;2.85;;;2.10;;
16543;SDS011;8384;47.996;7.786;2022-08-21T03:46:56;2.77;;;2.10;;
16543;SDS011;8384;47.996;7.786;2022-08-21T03:49:22;4.33;;;2.00;;
16543;SDS011;8384;47.996;7.786;2022-08-21T03:51:48;4.68;;;2.10;;
16543;SDS011;8384;47.996;7.786;2022-08-21T03:54:13;3.60;;;2.13;;
16543;SDS011;8384;47.996;7.786;2022-08-21T03:56:38;2.47;;;1.80;;
16543;SDS011;8384;47.996;7.786;2022-08-21T03:59:04;2.20;;;2.00;;
16543;SDS011;8384;47.996;7.786;2022-08-21T04:01:30;1.90;;;1.70;;
16543;SDS011;8384;47.996;7.786;2022-08-21T04:03:55;3.87;;;1.97;;
16543;SDS011;8384;47.996;7.786;2022-08-21T04:06:21;4.57;;;2.00;;
16543;SDS011;8384;47.996;7.786;2022-08-21T04:08:46;2.60;;;1.80;;
16543;SDS011;8384;47.996;7.786;2022-08-21T04:11:11;3.00;;;2.00;;
16543;SDS011;8384;47.996;7.786;2022-08-21T04:13:37;2.17;;;1.80;;
16543;SDS011;8384;47.996;7.786;2022-08-21T04:16:03;3.20;;;2.15;;
16543;SDS011;8384;47.996;7.786;2022-08-21T04:18:29;3.10;;;2.05;;
16543;SDS011;8384;47.996;7.786;2022-08-21T04:20:54;2.23;;;1.77;;
16543;SDS011;8384;47.996;7.786;2022-08-21T04:23:22;2.55;;;1.92;;
16543;SDS011;8384;47.996;7.786;2022-08-21T04:25:48;2.30;;;1.80;;
16543;SDS011;8384;47.996;7.786;2022-08-21T04:28:13;2.50;;;1.90;;
16543;SDS011;8384;47.996;7.786;2022-08-21T04:30:39;2.90;;;2.13;;
16543;SDS011;8384;47.996;7.786;2022-08-21T04:33:04;2.60;;;2.20;;
16543;SDS011;8384;47.996;7.786;2022-08-21T04:35:30;2.80;;;2.20;;
16543;SDS011;8384;47.996;7.786;2022-08-21T04:37:55;3.38;;;1.98;;
16543;SDS011;8384;47.996;7.786;2022-08-21T04:40:21;2.95;;;1.80;;
16543;SDS011;8384;47.996;7.786;2022-08-21T04:42:50;3.30;;;1.90;;
16543;SDS011;8384;47.996;7.786;2022-08-21T04:48:09;2.70;;;2.03;;
16543;SDS011;8384;47.996;7.786;2022-08-21T04:50:37;2.97;;;2.05;;
16543;SDS011;8384;47.996;7.786;2022-08-21T04:53:05;3.23;;;1.93;;
16543;SDS011;8384;47.996;7.786;2022-08-21T04:55:33;2.15;;;1.90;;
16543;SDS011;8384;47.996;7.786;2022-08-21T04:57:59;3.13;;;1.95;;
16543;SDS011;8384;47.996;7.786;2022-08-21T05:00:25;2.27;;;2.00;;
16543;SDS011;8384;47.996;7.786;2022-08-21T05:02:51;3.50;;;2.10;;
16543;SDS011;8384;47.996;7.786;2022-08-21T05:05:21;2.15;;;1.95;;
16543;SDS011;8384;47.996;7.786;2022-08-21T05:07:46;2.38;;;1.95;;
16543;SDS011;8384;47.996;7.786;2022-08-21T05:10:13;2.40;;;2.13;;
16543;SDS011;8384;47.996;7.786;2022-08-21T05:12:39;2.72;;;2.10;;
16543;SDS011;8384;47.996;7.786;2022-08-21T05:15:06;3.35;;;2.28;;
16543;SDS011;8384;47.996;7.786;2022-08-21T05:17:32;2.42;;;2.00;;
16543;SDS011;8384;47.996;7.786;2022-08-21T05:19:57;2.40;;;2.10;;
16543;SDS011;8384;47.996;7.786;2022-08-21T05:22:23;2.47;;;2.07;;
16543;SDS011;8384;47.996;7.786;2022-08-21T05:24:49;2.30;;;2.10;;
16543;SDS011;8384;47.996;7.786;2022-08-21T05:27:15;2.85;;;1.95;;
16543;SDS011;8384;47.996;7.786;2022-08-21T05:29:40;3.63;;;2.03;;
16543;SDS011;8384;47.996;7.786;2022-08-21T05:32:12;3.03;;;2.20;;
16543;SDS011;8384;47.996;7.786;2022-08-21T05:34:38;2.80;;;2.20;;
16543;SDS011;8384;47.996;7.786;2022-08-21T05:37:04;3.30;;;2.13;;
16543;SDS011;8384;47.996;7.786;2022-08-21T05:39:29;2.72;;;2.03;;
16543;SDS011;8384;47.996;7.786;2022-08-21T05:41:55;3.08;;;2.28;;
16543;SDS011;8384;47.996;7.786;2022-08-21T05:44:20;2.73;;;2.20;;
16543;SDS011;8384;47.996;7.786;2022-08-21T05:46:45;2.67;;;2.00;;
16543;SDS011;8384;47.996;7.786;2022-08-21T05:49:10;2.63;;;1.97;;
16543;SDS011;8384;47.996;7.786;2022-08-21T05:51:36;3.47;;;2.20;;
16543;SDS011;8384;47.996;7.786;2022-08-21T05:54:01;2.77;;;2.10;;
16543;SDS011;8384;47.996;7.786;2022-08-21T05:56:27;3.65;;;2.17;;
16543;SDS011;8384;47.996;7.786;2022-08-21T05:58:53;2.83;;;2.13;;
16543;SDS011;8384;47.996;7.786;2022-08-21T06:01:18;3.53;;;2.20;;
16543;SDS011;8384;47.996;7.786;2022-08-21T06:03:43;2.33;;;1.90;;
16543;SDS011;8384;47.996;7.786;2022-08-21T06:06:09;2.80;;;2.00;;
16543;SDS011;8384;47.996;7.786;2022-08-21T06:08:34;2.17;;;1.97;;
16543;SDS011;8384;47.996;7.786;2022-08-21T06:11:00;2.87;;;2.13;;
16543;SDS011;8384;47.996;7.786;2022-08-21T06:13:26;3.28;;;2.20;;
16543;SDS011;8384;47.996;7.786;2022-08-21T06:18:31;2.67;;;2.03;;
16543;SDS011;8384;47.996;7.786;2022-08-21T06:20:56;2.58;;;1.92;;
16543;SDS011;8384;47.996;7.786;2022-08-21T06:23:21;2.95;;;2.33;;
16543;SDS011;8384;47.996;7.786;2022-08-21T06:25:47;2.40;;;2.10;;
16543;SDS011;8384;47.996;7.786;2022-08-21T06:28:12;2.40;;;1.97;;
16543;SDS011;8384;47.996;7.786;2022-08-21T06:30:38;2.40;;;2.00;;
16543;SDS011;8384;47.996;7.786;2022-08-21T06:33:04;3.83;;;2.10;;
16543;SDS011;8384;47.996;7.786;2022-08-21T06:35:32;2.17;;;1.90;;
16543;SDS011;8384;47.996;7.786;2022-08-21T06:37:58;3.45;;;2.10;;
16543;SDS011;8384;47.996;7.786;2022-08-21T06:40:23;2.65;;;2.10;;
16543;SDS011;8384;47.996;7.786;2022-08-21T06:42:49;2.70;;;2.20;;
16543;SDS011;8384;47.996;7.786;2022-08-21T06:45:14;3.30;;;2.50;;
16543;SDS011;8384;47.996;7.786;2022-08-21T06:47:40;3.53;;;2.42;;
16543;SDS011;8384;47.996;7.786;2022-08-21T06:50:05;3.40;;;2.20;;
16543;SDS011;8384;47.996;7.786;2022-08-21T06:52:32;3.95;;;2.30;;
16543;SDS011;8384;47.996;7.786;2022-08-21T06:54:58;3.40;;;2.40;;
16543;SDS011;8384;47.996;7.786;2022-08-21T06:57:25;3.85;;;2.60;;
16543;SDS011;8384;47.996;7.786;2022-08-21T06:59:50;3.22;;;2.30;;
16543;SDS011;8384;47.996;7.786;2022-08-21T07:02:16;4.82;;;2.70;;
16543;SDS011;8384;47.996;7.786;2022-08-21T07:04:42;5.05;;;2.90;;
16543;SDS011;8384;47.996;7.786;2022-08-21T07:07:09;3.63;;;2.73;;
16543;SDS011;8384;47.996;7.786;2022-08-21T07:09:34;2.97;;;2.40;;
16543;SDS011;8384;47.996;7.786;2022-08-21T07:12:00;4.43;;;2.80;;
16543;SDS011;8384;47.996;7.786;2022-08-21T07:14:26;4.60;;;2.80;;
16543;SDS011;8384;47.996;7.786;2022-08-21T07:16:52;3.63;;;2.55;;
16543;SDS011;8384;47.996;7.786;2022-08-21T07:19:17;2.40;;;2.20;;
16543;SDS011;8384;47.996;7.786;2022-08-21T07:21:43;3.42;;;2.50;;
16543;SDS011;8384;47.996;7.786;2022-08-21T07:24:08;2.90;;;2.30;;
16543;SDS011;8384;47.996;7.786;2022-08-21T07:26:34;3.67;;;2.67;;
16543;SDS011;8384;47.996;7.786;2022-08-21T07:28:59;2.58;;;2.20;;
16543;SDS011;8384;47.996;7.786;2022-08-21T07:31:25;3.37;;;2.47;;
16543;SDS011;8384;47.996;7.786;2022-08-21T07:33:51;3.28;;;2.97;;
16543;SDS011;8384;47.996;7.786;2022-08-21T07:36:17;3.22;;;2.60;;
16543;SDS011;8384;47.996;7.786;2022-08-21T07:38:42;4.80;;;2.60;;
16543;SDS011;8384;47.996;7.786;2022-08-21T07:41:29;4.83;;;2.93;;
16543;SDS011;8384;47.996;7.786;2022-08-21T07:43:54;4.65;;;2.70;;
16543;SDS011;8384;47.996;7.786;2022-08-21T07:46:20;4.22;;;2.83;;
16543;SDS011;8384;47.996;7.786;2022-08-21T07:48:46;3.58;;;2.78;;
16543;SDS011;8384;47.996;7.786;2022-08-21T07:51:12;3.10;;;2.40;;
16543;SDS011;8384;47.996;7.786;2022-08-21T07:53:39;4.33;;;2.70;;
16543;SDS011;8384;47.996;7.786;2022-08-21T07:56:05;3.47;;;2.67;;
16543;SDS011;8384;47.996;7.786;2022-08-21T07:58:33;3.10;;;2.70;;
16543;SDS011;8384;47.996;7.786;2022-08-21T08:00:58;3.67;;;2.80;;
16543;SDS011;8384;47.996;7.786;2022-08-21T08:03:23;3.57;;;2.33;;
16543;SDS011;8384;47.996;7.786;2022-08-21T08:05:49;4.83;;;2.50;;
16543;SDS011;8384;47.996;7.786;2022-08-21T08:08:14;5.20;;;2.80;;
16543;SDS011;8384;47.996;7.786;2022-08-21T08:10:39;3.25;;;2.50;;
16543;SDS011;8384;47.996;7.786;2022-08-21T08:13:05;3.45;;;2.50;;
16543;SDS011;8384;47.996;7.786;2022-08-21T08:15:31;3.22;;;2.40;;
16543;SDS011;8384;47.996;7.786;2022-08-21T08:17:56;3.00;;;2.23;;
16543;SDS011;8384;47.996;7.786;2022-08-21T08:20:22;3.80;;;2.30;;
16543;SDS011;8384;47.996;7.786;2022-08-21T08:22:51;4.75;;;2.72;;
16543;SDS011;8384;47.996;7.786;2022-08-21T08:25:17;4.35;;;2.38;;
16543;SDS011;8384;47.996;7.786;2022-08-21T08:27:44;3.30;;;2.33;;
16543;SDS011;8384;47.996;7.786;2022-08-21T08:30:11;5.50;;;2.50;;
16543;SDS011;8384;47.996;7.786;2022-08-21T08:32:38;3.63;;;2.15;;
16543;SDS011;8384;47.996;7.786;2022-08-21T08:35:04;5.13;;;2.63;;
16543;SDS011;8384;47.996;7.786;2022-08-21T08:37:31;4.55;;;2.70;;
16543;SDS011;8384;47.996;7.786;2022-08-21T08:39:57;5.13;;;2.83;;
16543;SDS011;8384;47.996;7.786;2022-08-21T08:42:30;4.77;;;2.77;;
16543;SDS011;8384;47.996;7.786;2022-08-21T08:47:34;4.85;;;2.80;;
16543;SDS011;8384;47.996;7.786;2022-08-21T08:52:45;4.38;;;2.50;;
16543;SDS011;8384;47.996;7.786;2022-08-21T08:55:19;5.22;;;2.50;;
16543;SDS011;8384;47.996;7.786;2022-08-21T08:57:48;3.50;;;2.43;;
16543;SDS011;8384;47.996;7.786;2022-08-21T09:00:17;6.00;;;2.90;;
16543;SDS011;8384;47.996;7.786;2022-08-21T09:02:45;5.22;;;2.65;;
16543;SDS011;8384;47.996;7.786;2022-08-21T09:05:20;3.92;;;2.40;;
16543;SDS011;8384;47.996;7.786;2022-08-21T09:07:47;3.65;;;2.35;;
16543;SDS011;8384;47.996;7.786;2022-08-21T09:10:25;3.63;;;2.40;;
16543;SDS011;8384;47.996;7.786;2022-08-21T09:21:14;3.40;;;2.40;;
16543;SDS011;8384;47.996;7.786;2022-08-21T09:23:56;4.07;;;2.30;;
16543;SDS011;8384;47.996;7.786;2022-08-21T09:26:27;4.68;;;2.47;;
16543;SDS011;8384;47.996;7.786;2022-08-21T09:28:58;4.63;;;2.83;;
16543;SDS011;8384;47.996;7.786;2022-08-21T09:31:27;4.47;;;2.90;;
16543;SDS011;8384;47.996;7.786;2022-08-21T09:34:02;4.75;;;2.80;;
16543;SDS011;8384;47.996;7.786;2022-08-21T09:36:37;5.00;;;2.90;;
16543;SDS011;8384;47.996;7.786;2022-08-21T09:39:08;4.00;;;2.45;;
16543;SDS011;8384;47.996;7.786;2022-08-21T09:41:35;6.40;;;2.85;;
16543;SDS011;8384;47.996;7.786;2022-08-21T09:44:02;5.10;;;2.85;;
16543;SDS011;8384;47.996;7.786;2022-08-21T09:46:29;4.60;;;2.80;;
16543;SDS011;8384;47.996;7.786;2022-08-21T09:48:56;4.33;;;2.63;;
16543;SDS011;8384;47.996;7.786;2022-08-21T09:51:24;4.95;;;2.97;;
16543;SDS011;8384;47.996;7.786;2022-08-21T09:56:33;4.47;;;2.83;;
16543;SDS011;8384;47.996;7.786;2022-08-21T10:01:52;5.00;;;3.10;;
16543;SDS011;8384;47.996;7.786;2022-08-21T10:04:22;4.78;;;2.90;;
16543;SDS011;8384;47.996;7.786;2022-08-21T10:10:00;4.75;;;2.70;;
16543;SDS011;8384;47.996;7.786;2022-08-21T10:15:13;4.20;;;2.53;;
16543;SDS011;8384;47.996;7.786;2022-08-21T10:17:56;3.42;;;2.60;;
16543;SDS011;8384;47.996;7.786;2022-08-21T10:20:35;4.50;;;2.30;;
16543;SDS011;8384;47.996;7.786;2022-08-21T10:25:57;4.25;;;2.50;;
16543;SDS011;8384;47.996;7.786;2022-08-21T10:28:40;3.60;;;2.33;;
16543;SDS011;8384;47.996;7.786;2022-08-21T10:37:00;4.30;;;2.28;;
16543;SDS011;8384;47.996;7.786;2022-08-21T10:39:33;3.97;;;1.90;;
16543;SDS011;8384;47.996;7.786;2022-08-21T10:42:15;4.97;;;2.58;;
16543;SDS011;8384;47.996;7.786;2022-08-21T10:47:19;5.47;;;2.10;;
16543;SDS011;8384;47.996;7.786;2022-08-21T10:55:22;4.10;;;2.25;;
16543;SDS011;8384;47.996;7.786;2022-08-21T10:57:58;3.53;;;2.08;;
16543;SDS011;8384;47.996;7.786;2022-08-21T11:03:11;3.30;;;1.70;;
16543;SDS011;8384;47.996;7.786;2022-08-21T11:05:42;3.40;;;1.80;;
16543;SDS011;8384;47.996;7.786;2022-08-21T11:08:14;2.97;;;1.70;;
16543;SDS011;8384;47.996;7.786;2022-08-21T11:10:47;2.88;;;1.63;;
16543;SDS011;8384;47.996;7.786;2022-08-21T11:16:18;2.70;;;1.65;;
16543;SDS011;8384;47.996;7.786;2022-08-21T11:19:53;3.47;;;1.80;;
16543;SDS011;8384;47.996;7.786;2022-08-21T11:22:17;2.78;;;1.80;;
16543;SDS011;8384;47.996;7.786;2022-08-21T11:25:00;2.17;;;1.40;;
16543;SDS011;8384;47.996;7.786;2022-08-21T11:28:21;2.38;;;1.52;;
16543;SDS011;8384;47.996;7.786;2022-08-21T11:34:09;2.95;;;1.75;;
16543;SDS011;8384;47.996;7.786;2022-08-21T11:39:50;2.60;;;1.77;;
16543;SDS011;8384;47.996;7.786;2022-08-21T11:42:20;2.70;;;1.70;;
16543;SDS011;8384;47.996;7.786;2022-08-21T11:48:05;1.98;;;1.60;;
16543;SDS011;8384;47.996;7.786;2022-08-21T11:50:33;4.30;;;1.77;;
16543;SDS011;8384;47.996;7.786;2022-08-21T11:53:09;2.33;;;1.50;;
16543;SDS011;8384;47.996;7.786;2022-08-21T11:55:41;2.42;;;1.63;;
16543;SDS011;8384;47.996;7.786;2022-08-21T11:58:20;1.85;;;1.42;;
16543;SDS011;8384;47.996;7.786;2022-08-21T12:00:58;2.90;;;1.67;;
16543;SDS011;8384;47.996;7.786;2022-08-21T12:03:37;2.10;;;1.70;;
16543;SDS011;8384;47.996;7.786;2022-08-21T12:06:09;2.08;;;1.70;;
16543;SDS011;8384;47.996;7.786;2022-08-21T12:08:44;3.20;;;2.00;;
16543;SDS011;8384;47.996;7.786;2022-08-21T12:11:24;3.53;;;2.00;;
16543;SDS011;8384;47.996;7.786;2022-08-21T12:16:32;3.80;;;2.25;;
16543;SDS011;8384;47.996;7.786;2022-08-21T12:19:04;3.95;;;2.53;;
16543;SDS011;8384;47.996;7.786;2022-08-21T12:24:35;3.50;;;2.25;;
16543;SDS011;8384;47.996;7.786;2022-08-21T12:30:05;3.42;;;2.35;;
16543;SDS011;8384;47.996;7.786;2022-08-21T12:32:45;3.30;;;2.03;;
16543;SDS011;8384;47.996;7.786;2022-08-21T12:35:27;3.70;;;2.30;;
16543;SDS011;8384;47.996;7.786;2022-08-21T12:38:09;3.38;;;2.15;;
16543;SDS011;8384;47.996;7.786;2022-08-21T12:40:43;3.20;;;2.08;;
16543;SDS011;8384;47.996;7.786;2022-08-21T12:43:19;2.92;;;2.13;;
16543;SDS011;8384;47.996;7.786;2022-08-21T12:45:50;4.18;;;1.90;;
16543;SDS011;8384;47.996;7.786;2022-08-21T12:48:26;3.50;;;2.13;;
16543;SDS011;8384;47.996;7.786;2022-08-21T12:50:57;3.47;;;1.90;;
16543;SDS011;8384;47.996;7.786;2022-08-21T12:53:40;4.25;;;2.22;;
16543;SDS011;8384;47.996;7.786;2022-08-21T12:56:12;4.38;;;2.20;;
16543;SDS011;8384;47.996;7.786;2022-08-21T12:58:44;3.45;;;1.90;;
16543;SDS011;8384;47.996;7.786;2022-08-21T13:01:17;3.38;;;2.10;;
16543;SDS011;8384;47.996;7.786;2022-08-21T13:03:50;3.90;;;2.00;;
16543;SDS011;8384;47.996;7.786;2022-08-21T13:06:18;2.97;;;1.80;;
16543;SDS011;8384;47.996;7.786;2022-08-21T13:08:45;3.75;;;2.00;;
16543;SDS011;8384;47.996;7.786;2022-08-21T13:11:13;2.60;;;1.80;;
16543;SDS011;8384;47.996;7.786;2022-08-21T13:13:41;3.28;;;1.85;;
16543;SDS011;8384;47.996;7.786;2022-08-21T13:16:07;3.60;;;2.00;;
16543;SDS011;8384;47.996;7.786;2022-08-21T13:18:35;3.15;;;1.80;;
16543;SDS011;8384;47.996;7.786;2022-08-21T13:21:18;2.67;;;1.80;;
16543;SDS011;8384;47.996;7.786;2022-08-21T13:23:43;2.93;;;1.83;;
16543;SDS011;8384;47.996;7.786;2022-08-21T13:26:19;3.10;;;1.80;;
16543;SDS011;8384;47.996;7.786;2022-08-21T13:28:46;2.53;;;1.80;;
16543;SDS011;8384;47.996;7.786;2022-08-21T13:31:12;3.10;;;2.10;;
16543;SDS011;8384;47.996;7.786;2022-08-21T13:33:41;4.57;;;2.13;;
16543;SDS011;8384;47.996;7.786;2022-08-21T13:36:09;3.55;;;2.20;;
16543;SDS011;8384;47.996;7.786;2022-08-21T13:38:39;3.80;;;2.07;;
16543;SDS011;8384;47.996;7.786;2022-08-21T13:41:12;3.72;;;2.10;;
16543;SDS011;8384;47.996;7.786;2022-08-21T13:43:44;2.33;;;2.00;;
16543;SDS011;8384;47.996;7.786;2022-08-21T13:46:11;2.95;;;1.98;;
16543;SDS011;8384;47.996;7.786;2022-08-21T13:48:39;3.40;;;2.10;;
16543;SDS011;8384;47.996;7.786;2022-08-21T13:51:06;3.13;;;2.10;;
16543;SDS011;8384;47.996;7.786;2022-08-21T13:56:06;2.92;;;1.65;;
16543;SDS011;8384;47.996;7.786;2022-08-21T13:58:33;2.30;;;1.90;;
16543;SDS011;8384;47.996;7.786;2022-08-21T14:01:15;4.15;;;2.08;;
16543;SDS011;8384;47.996;7.786;2022-08-21T14:03:47;3.30;;;2.00;;
16543;SDS011;8384;47.996;7.786;2022-08-21T14:06:16;3.65;;;2.00;;
16543;SDS011;8384;47.996;7.786;2022-08-21T14:08:47;2.50;;;1.80;;
16543;SDS011;8384;47.996;7.786;2022-08-21T14:11:18;3.17;;;1.70;;
16543;SDS011;8384;47.996;7.786;2022-08-21T14:13:46;2.20;;;1.67;;
16543;SDS011;8384;47.996;7.786;2022-08-21T14:16:19;2.60;;;1.75;;
16543;SDS011;8384;47.996;7.786;2022-08-21T14:19:07;2.40;;;1.63;;
16543;SDS011;8384;47.996;7.786;2022-08-21T14:21:56;2.83;;;1.70;;
16543;SDS011;8384;47.996;7.786;2022-08-21T14:26:50;2.63;;;1.40;;
16543;SDS011;8384;47.996;7.786;2022-08-21T14:29:19;1.80;;;1.05;;
16543;SDS011;8384;47.996;7.786;2022-08-21T14:31:49;2.35;;;1.70;;
16543;SDS011;8384;47.996;7.786;2022-08-21T14:34:16;2.42;;;1.52;;
16543;SDS011;8384;47.996;7.786;2022-08-21T14:36:42;2.63;;;1.60;;
16543;SDS011;8384;47.996;7.786;2022-08-21T14:39:08;1.77;;;1.50;;
16543;SDS011;8384;47.996;7.786;2022-08-21T14:41:34;2.13;;;1.63;;
16543;SDS011;8384;47.996;7.786;2022-08-21T14:44:01;2.65;;;1.50;;
16543;SDS011;8384;47.996;7.786;2022-08-21T14:46:27;2.80;;;1.50;;
16543;SDS011;8384;47.996;7.786;2022-08-21T14:48:55;3.45;;;1.52;;
16543;SDS011;8384;47.996;7.786;2022-08-21T14:51:20;1.90;;;1.52;;
16543;SDS011;8384;47.996;7.786;2022-08-21T14:53:46;2.63;;;1.53;;
16543;SDS011;8384;47.996;7.786;2022-08-21T14:56:12;2.20;;;1.45;;
16543;SDS011;8384;47.996;7.786;2022-08-21T14:58:40;2.85;;;1.50;;
16543;SDS011;8384;47.996;7.786;2022-08-21T15:01:07;2.30;;;1.45;;
16543;SDS011;8384;47.996;7.786;2022-08-21T15:03:34;2.37;;;1.33;;
16543;SDS011;8384;47.996;7.786;2022-08-21T15:06:00;1.58;;;1.30;;
16543;SDS011;8384;47.996;7.786;2022-08-21T15:08:26;1.85;;;1.52;;
16543;SDS011;8384;47.996;7.786;2022-08-21T15:10:52;2.57;;;1.40;;
16543;SDS011;8384;47.996;7.786;2022-08-21T15:13:18;2.10;;;1.38;;
16543;SDS011;8384;47.996;7.786;2022-08-21T15:15:44;2.10;;;1.38;;
16543;SDS011;8384;47.996;7.786;2022-08-21T15:18:12;2.45;;;1.52;;
16543;SDS011;8384;47.996;7.786;2022-08-21T15:20:38;1.70;;;1.30;;
16543;SDS011;8384;47.996;7.786;2022-08-21T15:23:05;1.73;;;1.13;;
16543;SDS011;8384;47.996;7.786;2022-08-21T15:25:31;2.10;;;1.52;;
16543;SDS011;8384;47.996;7.786;2022-08-21T15:27:58;1.50;;;1.30;;
16543;SDS011;8384;47.996;7.786;2022-08-21T15:30:23;1.87;;;1.40;;
16543;SDS011;8384;47.996;7.786;2022-08-21T15:32:49;2.43;;;1.50;;
16543;SDS011;8384;47.996;7.786;2022-08-21T15:35:14;1.42;;;1.25;;
16543;SDS011;8384;47.996;7.786;2022-08-21T15:37:39;2.03;;;1.20;;
16543;SDS011;8384;47.996;7.786;2022-08-21T15:40:05;2.90;;;1.52;;
16543;SDS011;8384;47.996;7.786;2022-08-21T15:42:32;2.03;;;1.33;;
16543;SDS011;8384;47.996;7.786;2022-08-21T15:44:58;1.98;;;1.30;;
16543;SDS011;8384;47.996;7.786;2022-08-21T15:47:30;2.53;;;1.48;;
16543;SDS011;8384;47.996;7.786;2022-08-21T15:49:58;1.98;;;1.70;;
16543;SDS011;8384;47.996;7.786;2022-08-21T15:52:23;2.90;;;1.50;;
16543;SDS011;8384;47.996;7.786;2022-08-21T15:54:49;2.27;;;1.43;;
16543;SDS011;8384;47.996;7.786;2022-08-21T15:57:16;2.47;;;1.40;;
16543;SDS011;8384;47.996;7.786;2022-08-21T15:59:46;1.70;;;1.40;;
16543;SDS011;8384;47.996;7.786;2022-08-21T16:02:19;2.20;;;1.23;;
16543;SDS011;8384;47.996;7.786;2022-08-21T16:04:53;1.63;;;1.17;;
16543;SDS011;8384;47.996;7.786;2022-08-21T16:07:19;1.50;;;1.15;;
16543;SDS011;8384;47.996;7.786;2022-08-21T16:09:44;2.28;;;1.30;;
16543;SDS011;8384;47.996;7.786;2022-08-21T16:12:11;1.40;;;1.20;;
16543;SDS011;8384;47.996;7.786;2022-08-21T16:14:42;1.73;;;1.20;;
16543;SDS011;8384;47.996;7.786;2022-08-21T16:17:08;2.08;;;1.10;;
16543;SDS011;8384;47.996;7.786;2022-08-21T16:19:33;2.38;;;1.13;;
16543;SDS011;8384;47.996;7.786;2022-08-21T16:22:01;1.88;;;1.27;;
16543;SDS011;8384;47.996;7.786;2022-08-21T16:24:26;1.30;;;1.00;;